*** (BERICHT 30/01/2018): De windmeter staat (voorlopig) opgesteld op zo'n 4-tal meter & in een bosrijke omgeving waardoor de windwaarnemingen afwijkend kunnen zijn. (normaal 10 meter)***

CBI


Doneren

Weerstation Zoersel Live Webcam meer informatie Weerstation Zoersel Live Webcam


onweer radar meer informatie blitzortung!


regen radar  rain snow radar


Het weer levert geen direct gevaar op.    Er zijn geen waarschuwingen afgegeven.

metar rapporten vliegvelden

   
EBAW - Antwerp
gewijzigd: 18-07-2018 23:50
helder  
helder  
   wind: nno 7,4 km/h
wind: nno 7,4 km/h
temperatuur: 19°C
dauwpunt: 11°C
vochtigheid: 60%
barometer: 1019 hPa
zicht: meer dan 10 km
bewolking: helder
EBAW 182150Z AUTO 03004KT 010V070 CAVOK 19/11 Q1019
EBLG - Li├Ęge
gewijzigd: 18-07-2018 23:50
helder  
helder  
   wind: noorden 9,3 km/h
wind: noorden 9,3 km/h
temperatuur: 18°C
dauwpunt: 11°C
vochtigheid: 64%
barometer: 1019 hPa
zicht: meer dan 10 km
bewolking: helder
EBLG 182150Z 35005KT CAVOK 18/11 Q1019 NOSIG
EBCV - Mons/Bergen
gewijzigd: 18-07-2018 23:25
helder  
helder  
   wind: nno 9,3 km/h
wind: nno 9,3 km/h
temperatuur: 18°C
dauwpunt: 12°C
vochtigheid: 68%
barometer: 1019 hPa
bewolking: helder
zicht: meer dan 10 km
bewolking: helder
EBCV 182125Z AUTO 03005KT 9999 NCD 18/12 Q1019 BLU
EHBK - Maastricht
gewijzigd: 18-07-2018 23:55
helder  
helder  
   wind: noorden 11,1 km/h
wind: noorden 11,1 km/h
temperatuur: 19°C
dauwpunt: 12°C
vochtigheid: 64%
barometer: 1018 hPa
bewolking: helder
zicht: meer dan 10 km
bewolking: helder
EHBK 182155Z AUTO 35006KT 320V020 9999 NCD 19/12 Q1018
ELLX - Luxemburg
gewijzigd: 18-07-2018 23:50
helder  
helder  
   wind: nno 16,7 km/h
wind: nno 16,7 km/h
temperatuur: 20°C
dauwpunt: 9°C
vochtigheid: 49%
barometer: 1018 hPa
zicht: meer dan 10 km
bewolking: helder
ELLX 182150Z 03009KT CAVOK 20/09 Q1018 NOSIG
EBOS - Oostende
gewijzigd: 18-07-2018 23:50
helder  
helder  
   wind: nno 7,4 km/h
wind: nno 7,4 km/h
temperatuur: 17°C
dauwpunt: 13°C
vochtigheid: 77%
barometer: 1020 hPa
zicht: meer dan 10 km
bewolking: helder
EBOS 182150Z 03004KT CAVOK 17/13 Q1020 NOSIG

script ontwikkeld door  Saratoga-weather.org aangepast voor de template door  Weerstation Leuven